Terminal Aerodrome Forecast
Issued by NWS

Home | Current Version | Previous Version | Text Only | Print | Product List | Glossary On
Versions: 1 2 3 4 5 6 7 8 9 10 11 12 13 14 15 16 17 18 19 20 21 22 23 24 25 26 27 28 29 30 31 32 33 34
000
FTUS46 KOTX 290539
TAFCOE
TAF
KCOE 290539Z 2906/3006 23024G34KT P6SM -RA SCT024 BKN035 OVC060
      TEMPO 2906/2909 BKN030
     FM290900 25015G26KT P6SM VCSH SCT015 OVC030
     FM291200 25015KT P6SM SCT030 BKN050
     FM291900 32018G28KT P6SM VCSH SCT025 BKN040 PROB30 2920/2923
      4SM -SHSN BR BKN025
     FM300200 35017G28KT P6SM SCT040
      AMD LTD TO CLD AND VIS=

USA.gov is the U.S. government's official web portal to all federal, state and local government web resources and services.